createdAt,value
2019-02-08T07:58:16.936Z,54.724121
2019-02-08T07:58:25.149Z,54.626465
2019-02-08T07:58:33.301Z,54.400635
2019-02-08T07:58:41.482Z,54.296875
2019-02-08T07:58:49.691Z,54.223633
2019-02-08T07:58:58.139Z,54.199219
2019-02-08T07:59:06.312Z,54.400635
2019-02-08T07:59:14.508Z,54.022217
2019-02-08T07:59:23.734Z,53.594971
2019-02-08T07:59:32.038Z,53.295898
2019-02-08T07:59:40.254Z,53.02124
2019-02-08T07:59:48.512Z,52.91748
2019-02-08T07:59:56.712Z,52.716064
2019-02-08T08:00:04.901Z,52.91748
2019-02-08T08:00:13.075Z,53.320312
2019-02-08T08:00:21.263Z,53.521729
2019-02-08T08:00:29.461Z,53.723145
2019-02-08T08:00:37.650Z,53.796387
2019-02-08T08:00:46.966Z,53.924561
2019-02-08T08:00:55.182Z,54.125977
2019-02-08T08:01:03.363Z,54.327393
2019-02-08T08:01:11.610Z,54.626465
2019-02-08T08:01:19.776Z,54.699707
2019-02-08T08:01:27.946Z,55.230713
2019-02-08T08:01:36.130Z,54.827881
2019-02-08T08:01:44.333Z,54.400635
2019-02-08T08:01:52.561Z,54.528809
2019-02-08T08:02:00.731Z,54.602051
2019-02-08T08:02:08.960Z,54.699707
2019-02-08T08:02:18.172Z,54.724121
2019-02-08T08:02:26.421Z,54.724121
2019-02-08T08:02:34.594Z,54.827881
2019-02-08T08:02:42.786Z,54.925537
2019-02-08T08:02:51.020Z,55.230713
2019-02-08T08:02:59.227Z,55.328369
2019-02-08T08:03:07.445Z,55.731201
2019-02-08T08:03:15.627Z,55.828857
2019-02-08T08:03:23.871Z,55.828857
2019-02-08T08:03:32.515Z,55.633545
2019-02-08T08:03:41.114Z,55.529785
2019-02-08T08:03:49.568Z,55.328369
2019-02-08T08:04:02.068Z,55.200195
2019-02-08T08:04:11.321Z,55.004883
2019-02-08T08:04:20.483Z,55.029297
2019-02-08T08:04:29.351Z,54.901123
2019-02-08T08:04:38.553Z,55.004883
2019-02-08T08:04:47.734Z,55.004883
2019-02-08T08:04:56.887Z,55.004883
2019-02-08T08:05:05.450Z,55.230713
2019-02-08T08:05:14.226Z,55.200195
2019-02-08T08:05:23.024Z,55.126953
2019-02-08T08:05:32.224Z,55.230713
2019-02-08T08:05:41.182Z,55.126953
2019-02-08T08:05:50.131Z,55.029297
2019-02-08T08:05:59.152Z,54.827881
2019-02-08T08:06:08.226Z,54.626465
2019-02-08T08:06:17.638Z,54.425049
2019-02-08T08:06:27.024Z,54.528809
2019-02-08T08:06:36.061Z,54.528809
2019-02-08T08:06:45.386Z,54.528809
2019-02-08T08:06:54.769Z,54.223633
2019-02-08T08:07:03.297Z,54.022217
2019-02-08T08:07:12.645Z,54.425049
2019-02-08T08:07:21.898Z,54.425049
2019-02-08T08:07:31.243Z,54.528809
2019-02-08T08:07:41.608Z,54.528809
2019-02-08T08:07:50.902Z,54.724121
2019-02-08T08:08:01.527Z,54.724121
2019-02-08T08:08:10.759Z,53.924561
2019-02-08T08:08:19.822Z,51.312256
2019-02-08T08:08:28.684Z,51.611328
2019-02-08T08:08:37.470Z,50.909424
2019-02-08T08:08:46.407Z,49.780273
2019-02-08T08:08:56.470Z,49.005127
2019-02-08T08:09:05.166Z,48.779297
2019-02-08T08:09:14.304Z,48.876953
2019-02-08T08:09:23.412Z,49.078369
2019-02-08T08:09:32.557Z,49.279785
2019-02-08T08:09:42.508Z,49.481201
2019-02-08T08:09:51.701Z,49.481201
2019-02-08T08:10:00.859Z,49.383545
2019-02-08T08:10:09.980Z,49.279785
2019-02-08T08:10:19.137Z,48.980713
2019-02-08T08:10:28.498Z,48.876953
2019-02-08T08:10:39.827Z,48.779297
2019-02-08T08:10:49.196Z,48.675537
2019-02-08T08:10:58.523Z,48.779297
2019-02-08T08:11:07.538Z,48.779297
2019-02-08T08:11:17.405Z,48.876953
2019-02-08T08:11:26.702Z,48.779297
2019-02-08T08:11:36.055Z,49.481201
2019-02-08T08:11:45.358Z,49.682617
2019-02-08T08:11:54.734Z,49.182129
2019-02-08T08:12:03.725Z,48.779297
2019-02-08T08:12:12.854Z,48.675537
2019-02-08T08:12:22.183Z,48.779297
2019-02-08T08:12:30.852Z,49.182129
2019-02-08T08:12:40.189Z,49.182129
2019-02-08T08:12:49.525Z,48.858643
2019-02-08T08:12:58.853Z,48.553467
2019-02-08T08:13:07.801Z,48.455811
2019-02-08T08:13:17.142Z,48.352051
2019-02-08T08:13:27.181Z,48.254395
2019-02-08T08:13:35.723Z,48.156738
2019-02-08T08:13:44.558Z,48.156738
2019-02-08T08:13:53.733Z,48.352051
2019-02-08T08:14:02.738Z,48.553467
2019-02-08T08:14:12.058Z,48.754883
2019-02-08T08:14:21.423Z,48.657227
2019-02-08T08:14:29.785Z,48.455811
2019-02-08T08:14:37.996Z,48.254395
2019-02-08T08:14:46.240Z,47.955322
2019-02-08T08:14:54.612Z,47.851562
2019-02-08T08:15:03.533Z,48.254395
2019-02-08T08:15:12.824Z,48.553467
2019-02-08T08:15:22.045Z,48.553467
2019-02-08T08:15:31.108Z,48.657227
2019-02-08T08:15:40.499Z,48.657227
2019-02-08T08:15:49.765Z,48.754883
2019-02-08T08:15:59.111Z,48.657227
2019-02-08T08:16:08.163Z,48.553467
2019-02-08T08:16:17.520Z,48.352051
2019-02-08T08:16:26.878Z,48.254395
2019-02-08T08:16:36.024Z,48.156738
2019-02-08T08:16:45.248Z,48.052979
2019-02-08T08:16:54.618Z,47.955322
2019-02-08T08:17:03.478Z,47.851562
2019-02-08T08:17:12.856Z,47.851562
2019-02-08T08:17:22.222Z,47.851562
2019-02-08T08:17:31.418Z,47.851562
2019-02-08T08:17:40.778Z,47.827148
2019-02-08T08:17:49.478Z,47.827148
2019-02-08T08:17:58.824Z,47.827148
2019-02-08T08:18:08.343Z,47.827148
2019-02-08T08:18:17.690Z,47.729492
2019-02-08T08:18:27.045Z,47.729492
2019-02-08T08:18:37.356Z,47.729492
2019-02-08T08:18:46.321Z,47.729492
2019-02-08T08:18:55.626Z,47.729492
2019-02-08T08:19:04.621Z,47.729492
2019-02-08T08:19:14.026Z,47.729492
2019-02-08T08:19:24.099Z,47.729492
2019-02-08T08:19:33.439Z,47.729492
2019-02-08T08:19:42.884Z,47.631836
2019-02-08T08:19:52.209Z,47.631836
2019-02-08T08:20:01.215Z,47.528076
2019-02-08T08:20:10.489Z,47.32666
2019-02-08T08:20:19.479Z,47.229004
2019-02-08T08:20:28.872Z,47.32666
2019-02-08T08:20:38.229Z,47.32666
2019-02-08T08:20:47.654Z,47.43042
2019-02-08T08:20:57.115Z,47.43042
2019-02-08T08:21:06.193Z,47.43042
2019-02-08T08:21:15.544Z,47.43042
2019-02-08T08:21:24.892Z,47.43042
2019-02-08T08:21:34.222Z,47.729492
2019-02-08T08:21:44.595Z,47.930908
2019-02-08T08:21:53.924Z,47.827148
2019-02-08T08:22:02.930Z,48.028564
2019-02-08T08:22:12.272Z,48.22998
2019-02-08T08:22:21.421Z,48.132324
2019-02-08T08:22:30.733Z,48.132324
2019-02-08T08:22:40.073Z,48.028564
2019-02-08T08:22:49.435Z,47.32666
2019-02-08T08:22:58.761Z,47.125244
2019-02-08T08:23:07.571Z,47.32666
2019-02-08T08:23:17.696Z,47.528076
2019-02-08T08:23:27.028Z,47.729492
2019-02-08T08:23:36.377Z,47.729492
2019-02-08T08:23:45.379Z,47.808838
2019-02-08T08:23:54.650Z,47.808838
2019-02-08T08:24:03.539Z,47.906494
2019-02-08T08:24:12.864Z,47.906494
2019-02-08T08:24:22.083Z,48.010254
2019-02-08T08:24:30.913Z,48.010254
2019-02-08T08:24:41.120Z,47.906494
2019-02-08T08:24:50.481Z,47.808838
2019-02-08T08:24:59.707Z,47.906494
2019-02-08T08:25:09.575Z,47.906494
2019-02-08T08:25:19.913Z,48.010254
2019-02-08T08:25:33.980Z,48.010254
2019-02-08T08:25:41.888Z,48.10791
2019-02-08T08:25:51.336Z,48.10791
2019-02-08T08:26:00.400Z,48.10791
2019-02-08T08:26:09.463Z,48.10791
2019-02-08T08:26:18.899Z,47.607422
2019-02-08T08:26:27.344Z,47.406006
2019-02-08T08:26:35.700Z,47.30835
2019-02-08T08:26:44.958Z,47.406006
2019-02-08T08:26:54.312Z,47.503662
2019-02-08T08:27:02.982Z,47.607422
2019-02-08T08:27:11.236Z,47.906494
2019-02-08T08:27:20.406Z,48.010254
2019-02-08T08:27:28.634Z,48.10791
2019-02-08T08:27:37.474Z,48.712158
2019-02-08T08:27:45.812Z,49.01123
2019-02-08T08:27:54.572Z,38.085938
2019-02-08T08:28:03.022Z,31.787109
2019-02-08T08:28:11.604Z,29.882812
2019-02-08T08:28:20.197Z,29.394531
2019-02-08T08:28:28.594Z,29.193115
2019-02-08T08:28:37.432Z,28.991699
2019-02-08T08:28:45.720Z,28.90625
2019-02-08T08:28:54.637Z,28.918457
2019-02-08T08:29:04.229Z,28.930664
2019-02-08T08:29:12.646Z,29.13208
2019-02-08T08:29:21.245Z,29.449463
2019-02-08T08:29:30.968Z,29.650879
2019-02-08T08:29:39.674Z,30.065918
2019-02-08T08:29:48.563Z,30.383301
2019-02-08T08:29:57.215Z,30.499268
2019-02-08T08:30:05.470Z,30.499268
2019-02-08T08:30:15.143Z,30.511475
2019-02-08T08:30:24.119Z,30.627441
2019-02-08T08:30:33.431Z,31.14624
2019-02-08T08:30:42.615Z,31.359863
2019-02-08T08:30:51.682Z,31.677246
2019-02-08T08:31:00.754Z,31.994629
2019-02-08T08:31:09.613Z,32.318115
2019-02-08T08:31:18.786Z,32.635498
2019-02-08T08:31:28.097Z,33.050537
2019-02-08T08:31:37.253Z,33.673096
2019-02-08T08:31:46.715Z,33.892822
2019-02-08T08:31:57.103Z,34.216309
2019-02-08T08:32:06.213Z,34.533691
2019-02-08T08:32:15.409Z,35.357666
2019-02-08T08:32:24.742Z,36.083984
2019-02-08T08:32:33.987Z,35.882568
2019-02-08T08:32:43.393Z,36.102295
2019-02-08T08:32:52.408Z,36.120605
2019-02-08T08:33:02.469Z,36.541748
2019-02-08T08:33:12.823Z,36.950684
2019-02-08T08:33:22.191Z,37.579346
2019-02-08T08:33:31.566Z,37.695312
2019-02-08T08:33:40.742Z,38.018799
2019-02-08T08:33:49.291Z,38.342285
2019-02-08T08:33:58.632Z,38.647461
2019-02-08T08:34:07.418Z,38.867188
2019-02-08T08:34:17.743Z,39.093018
2019-02-08T08:34:26.341Z,39.416504
2019-02-08T08:34:35.559Z,39.923096
2019-02-08T08:34:44.935Z,40.350342
2019-02-08T08:34:54.256Z,40.777588
2019-02-08T08:35:04.323Z,41.387939
2019-02-08T08:35:13.664Z,41.61377
2019-02-08T08:35:22.787Z,42.138672
2019-02-08T08:35:31.367Z,42.547607
2019-02-08T08:35:40.759Z,42.669678
2019-02-08T08:35:50.478Z,42.773438
2019-02-08T08:35:59.632Z,42.999268
2019-02-08T08:36:08.637Z,43.096924
2019-02-08T08:36:18.012Z,43.62793
2019-02-08T08:36:27.454Z,44.348145
2019-02-08T08:36:36.820Z,44.775391
2019-02-08T08:36:46.167Z,44.897461
2019-02-08T08:36:55.567Z,45.001221
2019-02-08T08:37:04.622Z,45.202637
2019-02-08T08:37:13.649Z,45.428467
2019-02-08T08:37:24.684Z,45.635986
2019-02-08T08:37:33.072Z,45.965576
2019-02-08T08:37:42.490Z,46.166992
2019-02-08T08:37:51.848Z,46.270752
2019-02-08T08:38:00.773Z,46.392822
2019-02-08T08:38:09.999Z,46.905518
2019-02-08T08:38:19.385Z,47.216797
2019-02-08T08:38:28.742Z,47.235107
2019-02-08T08:38:38.112Z,47.442627
2019-02-08T08:38:47.154Z,47.564697
2019-02-08T08:38:56.355Z,47.772217
2019-02-08T08:39:05.217Z,48.181152
2019-02-08T08:39:14.138Z,48.309326
2019-02-08T08:39:23.098Z,48.406982
2019-02-08T08:39:31.498Z,48.614502
2019-02-08T08:39:40.446Z,48.840332
2019-02-08T08:39:50.013Z,49.047852
2019-02-08T08:39:58.238Z,49.151611
2019-02-08T08:40:06.480Z,49.273682
2019-02-08T08:40:14.657Z,49.377441
2019-02-08T08:40:23.124Z,49.481201
2019-02-08T08:40:31.941Z,49.914551
2019-02-08T08:40:40.789Z,50.12207
2019-02-08T08:40:49.349Z,50.323486
2019-02-08T08:40:58.113Z,50.65918
2019-02-08T08:41:06.744Z,51.068115
2019-02-08T08:41:15.341Z,51.196289
2019-02-08T08:41:23.795Z,51.397705
2019-02-08T08:41:32.169Z,51.501465
2019-02-08T08:41:41.982Z,51.916504
2019-02-08T08:41:50.554Z,52.22168
2019-02-08T08:41:59.113Z,52.246094
2019-02-08T08:42:07.316Z,52.453613
2019-02-08T08:42:15.510Z,52.557373
2019-02-08T08:42:23.863Z,52.557373
2019-02-08T08:42:32.070Z,52.557373
2019-02-08T08:42:40.251Z,52.685547
2019-02-08T08:42:49.049Z,52.990723
2019-02-08T08:42:57.876Z,52.990723
2019-02-08T08:43:06.662Z,53.094482
2019-02-08T08:43:16.520Z,53.198242
2019-02-08T08:43:25.090Z,53.430176
2019-02-08T08:43:33.327Z,53.735352
2019-02-08T08:43:41.517Z,53.735352
2019-02-08T08:43:50.783Z,53.839111
2019-02-08T08:44:00.118Z,54.046631
2019-02-08T08:44:09.161Z,54.25415
2019-02-08T08:44:18.366Z,54.278564
2019-02-08T08:44:26.614Z,54.174805
2019-02-08T08:44:35.962Z,54.174805
2019-02-08T08:44:45.278Z,54.382324
2019-02-08T08:44:54.298Z,54.47998
2019-02-08T08:45:03.152Z,54.47998
2019-02-08T08:45:12.378Z,54.711914
2019-02-08T08:45:21.231Z,54.919434
2019-02-08T08:45:30.258Z,55.126953
2019-02-08T08:45:39.595Z,55.126953
2019-02-08T08:45:49.028Z,55.126953
2019-02-08T08:45:59.280Z,55.230713
2019-02-08T08:46:08.274Z,55.334473
2019-02-08T08:46:17.603Z,55.255127
2019-02-08T08:46:26.578Z,55.358887
2019-02-08T08:46:35.641Z,55.664062
2019-02-08T08:46:45.891Z,56.079102
2019-02-08T08:46:55.071Z,56.079102
2019-02-08T08:47:04.071Z,56.079102
2019-02-08T08:47:13.427Z,56.079102
2019-02-08T08:47:22.586Z,56.079102
2019-02-08T08:47:31.592Z,56.311035
2019-02-08T08:47:40.636Z,56.518555
2019-02-08T08:47:49.709Z,56.622314
2019-02-08T08:47:58.803Z,56.622314
2019-02-08T08:48:07.831Z,56.518555
2019-02-08T08:48:17.163Z,56.518555
2019-02-08T08:48:25.923Z,56.622314
2019-02-08T08:48:34.753Z,56.518555
2019-02-08T08:48:43.522Z,56.622314
2019-02-08T08:48:52.409Z,56.726074
2019-02-08T08:49:01.366Z,56.958008
2019-02-08T08:49:10.552Z,56.958008
2019-02-08T08:49:19.710Z,57.165527
2019-02-08T08:49:28.911Z,57.781982
2019-02-08T08:49:38.086Z,58.093262
2019-02-08T08:49:46.657Z,57.989502
2019-02-08T08:49:55.803Z,57.781982
2019-02-08T08:50:04.546Z,57.885742
2019-02-08T08:50:13.796Z,57.781982
2019-02-08T08:50:23.148Z,57.678223
2019-02-08T08:50:32.477Z,57.574463
2019-02-08T08:50:43.528Z,57.678223
2019-02-08T08:50:52.996Z,57.806396
2019-02-08T08:51:01.859Z,57.910156
2019-02-08T08:51:11.263Z,57.806396
2019-02-08T08:51:20.646Z,57.806396
2019-02-08T08:51:29.715Z,58.013916
2019-02-08T08:51:39.049Z,58.117676
2019-02-08T08:51:48.362Z,58.013916
2019-02-08T08:51:57.547Z,57.910156
2019-02-08T08:52:06.566Z,57.910156
2019-02-08T08:52:15.633Z,58.013916
2019-02-08T08:52:24.992Z,58.117676
2019-02-08T08:52:34.034Z,58.148193
2019-02-08T08:52:43.085Z,58.24585
2019-02-08T08:52:52.453Z,58.349609
2019-02-08T08:53:01.537Z,58.453369
2019-02-08T08:53:10.830Z,58.660889
2019-02-08T08:53:19.965Z,58.868408
2019-02-08T08:53:28.906Z,58.996582
2019-02-08T08:53:38.246Z,59.307861
2019-02-08T08:53:47.831Z,59.411621
2019-02-08T08:53:57.853Z,59.411621
2019-02-08T08:54:06.490Z,59.204102
2019-02-08T08:54:14.718Z,59.204102
2019-02-08T08:54:23.592Z,59.307861
2019-02-08T08:54:32.482Z,59.411621
2019-02-08T08:54:41.850Z,59.619141
2019-02-08T08:54:51.187Z,59.643555
2019-02-08T08:54:59.927Z,59.851074
2019-02-08T08:55:08.224Z,60.162354
2019-02-08T08:55:16.500Z,60.266113
2019-02-08T08:55:25.628Z,60.162354
2019-02-08T08:55:41.943Z,60.162354
2019-02-08T08:55:47.356Z,60.473633
2019-02-08T08:55:56.618Z,60.681152
2019-02-08T08:56:05.670Z,60.681152
2019-02-08T08:56:14.846Z,60.577393
2019-02-08T08:56:23.995Z,60.577393
2019-02-08T08:56:33.032Z,60.681152
2019-02-08T08:56:42.650Z,60.681152
2019-02-08T08:56:52.064Z,60.577393
2019-02-08T08:57:01.114Z,60.473633
2019-02-08T08:57:10.286Z,60.473633
2019-02-08T08:57:20.375Z,60.577393
2019-02-08T08:57:31.586Z,60.681152
2019-02-08T08:57:40.950Z,60.577393
2019-02-08T08:57:49.952Z,60.577393
2019-02-08T08:57:59.375Z,60.473633
2019-02-08T08:58:08.327Z,60.681152
2019-02-08T08:58:17.581Z,60.784912
2019-02-08T08:58:27.624Z,60.888672
2019-02-08T08:58:36.657Z,60.888672
2019-02-08T08:58:45.684Z,60.888672
2019-02-08T08:58:55.060Z,60.992432
2019-02-08T08:59:03.940Z,60.992432
2019-02-08T08:59:16.659Z,60.888672
2019-02-08T08:59:25.687Z,60.888672
2019-02-08T08:59:35.854Z,61.096191
2019-02-08T08:59:45.010Z,61.096191
2019-02-08T08:59:55.217Z,61.096191
2019-02-08T09:00:05.231Z,61.199951
2019-02-08T09:00:15.655Z,61.096191
2019-02-08T09:00:24.215Z,61.096191
2019-02-08T09:00:33.408Z,61.096191
2019-02-08T09:00:42.467Z,61.096191
2019-02-08T09:00:51.687Z,61.199951
2019-02-08T09:01:00.836Z,61.297607
2019-02-08T09:01:09.546Z,61.297607
2019-02-08T09:01:18.707Z,61.297607
2019-02-08T09:01:28.953Z,61.199951
2019-02-08T09:01:38.315Z,61.199951
2019-02-08T09:01:47.129Z,60.992432
2019-02-08T09:01:56.188Z,60.888672
2019-02-08T09:02:05.201Z,60.784912
2019-02-08T09:02:14.261Z,60.473633
2019-02-08T09:02:23.581Z,60.681152
2019-02-08T09:02:32.902Z,60.888672
2019-02-08T09:02:42.265Z,60.784912
2019-02-08T09:02:51.428Z,60.681152
2019-02-08T09:03:00.833Z,60.577393
2019-02-08T09:03:09.031Z,60.577393
2019-02-08T09:03:18.170Z,60.577393
2019-02-08T17:25:03.941Z,49.761963
2019-02-08T17:25:12.114Z,49.462891
2019-02-08T17:25:20.384Z,49.163818
2019-02-08T18:22:03.104Z,47.717285
2019-02-08T18:22:13.224Z,47.814941
2019-02-08T18:22:21.388Z,48.016357
2019-02-08T18:22:30.580Z,48.217773
2019-02-08T18:22:38.733Z,48.419189
2019-02-08T18:22:46.960Z,49.414062
2019-02-08T18:22:55.150Z,49.316406
2019-02-08T18:23:03.363Z,49.11499
2019-02-08T18:23:12.322Z,49.414062
2019-02-08T18:23:21.124Z,49.414062
2019-02-08T18:23:30.507Z,49.21875
2019-02-08T18:23:39.880Z,49.21875
2019-02-08T18:23:48.766Z,49.414062
2019-02-08T18:23:58.785Z,48.516846
2019-02-08T18:24:07.631Z,44.213867
2019-02-08T18:24:17.904Z,40.814209
2019-02-08T18:24:26.652Z,40.710449
2019-02-08T18:24:35.381Z,42.51709
2019-02-08T18:24:44.514Z,42.41333
2019-02-08T18:24:53.382Z,39.611816
2019-02-08T18:25:02.120Z,40.911865
2019-02-08T18:25:11.126Z,38.513184
2019-02-08T18:25:20.426Z,36.914062
2019-02-08T18:25:29.463Z,37.713623
2019-02-08T18:25:38.023Z,36.51123
2019-02-08T18:25:46.903Z,35.614014
2019-02-08T18:25:57.015Z,34.509277
2019-02-08T18:26:06.133Z,33.007812
2019-02-08T18:26:15.483Z,33.312988
2019-02-08T18:26:24.602Z,33.209229
2019-02-08T18:26:33.916Z,32.928467
2019-02-08T18:26:43.282Z,31.82373
2019-02-08T18:26:52.485Z,33.227539
2019-02-08T18:27:01.364Z,37.329102
2019-02-08T18:27:11.706Z,37.530518
2019-02-08T18:27:21.081Z,37.530518
2019-02-08T18:27:30.447Z,37.249756
2019-02-08T18:27:39.810Z,34.143066
2019-02-08T18:27:49.137Z,33.544922
2019-02-08T18:27:58.503Z,32.940674
2019-02-08T18:28:11.179Z,30.950928
2019-02-08T18:28:20.564Z,30.853271
2019-02-08T18:28:28.832Z,30.950928
2019-02-08T18:28:38.089Z,30.651855
2019-02-08T18:28:46.260Z,30.755615
2019-02-08T18:28:54.448Z,30.065918
2019-02-08T18:29:02.633Z,29.864502
2019-02-08T18:29:10.800Z,29.364014
2019-02-08T18:29:18.950Z,29.364014
2019-02-08T18:29:27.144Z,30.163574
2019-02-08T18:29:35.386Z,30.981445
2019-02-08T18:29:43.551Z,31.988525
2019-02-08T18:29:51.717Z,32.385254
2019-02-08T18:29:59.894Z,32.989502
2019-02-08T18:30:08.024Z,33.709717
2019-02-08T18:30:17.566Z,34.008789
2019-02-08T18:30:26.559Z,34.411621
2019-02-08T18:30:34.747Z,35.009766
2019-02-08T18:30:43.177Z,35.510254
2019-02-08T18:30:51.713Z,36.114502
2019-02-08T18:31:00.168Z,36.61499
2019-02-08T18:31:08.848Z,37.036133
2019-02-08T18:31:17.404Z,36.633301
2019-02-08T18:31:26.027Z,36.633301
2019-02-08T18:31:34.616Z,36.932373
2019-02-08T18:31:43.069Z,37.237549
2019-02-08T18:31:51.523Z,37.634277
2019-02-08T18:31:59.846Z,38.037109
2019-02-08T18:32:08.047Z,38.238525
2019-02-08T18:32:16.883Z,38.439941
2019-02-08T18:32:25.984Z,38.739014
2019-02-08T18:32:35.233Z,38.95874
2019-02-08T18:32:44.043Z,39.160156
2019-02-08T18:32:53.056Z,39.361572
2019-02-08T18:33:01.618Z,39.562988
2019-02-08T18:33:10.269Z,39.862061
2019-02-08T18:33:19.627Z,40.063477
2019-02-08T18:33:28.142Z,40.167236
2019-02-08T18:33:36.853Z,40.264893
2019-02-08T18:33:46.796Z,40.368652
2019-02-08T18:33:55.798Z,40.667725
2019-02-08T18:34:04.272Z,40.869141
2019-02-08T18:34:12.811Z,40.966797
2019-02-08T18:34:21.612Z,40.966797
2019-02-08T18:34:30.408Z,41.070557
2019-02-08T18:34:39.241Z,41.070557
2019-02-08T18:34:48.890Z,41.168213
2019-02-08T18:34:57.722Z,41.168213
2019-02-08T18:35:06.331Z,41.271973
2019-02-08T18:35:15.669Z,41.271973
2019-02-08T18:35:24.714Z,41.369629
2019-02-08T18:35:34.030Z,41.571045
2019-02-08T18:35:43.361Z,41.772461
2019-02-08T18:35:52.539Z,41.870117
2019-02-08T18:36:02.639Z,41.973877
2019-02-08T18:36:12.749Z,41.973877
2019-02-08T18:36:21.962Z,41.973877
2019-02-08T18:36:31.154Z,42.474365
2019-02-08T18:36:40.520Z,42.675781
2019-02-08T18:36:49.352Z,42.675781
2019-02-08T18:36:58.666Z,42.474365
2019-02-08T18:37:07.363Z,42.376709
2019-02-08T18:37:16.534Z,42.272949
2019-02-08T18:37:25.761Z,42.376709
2019-02-08T18:37:35.103Z,42.376709
2019-02-08T18:37:44.458Z,42.376709
2019-02-08T18:37:53.848Z,42.474365
2019-02-08T18:38:03.694Z,42.474365
2019-02-08T18:38:13.048Z,42.578125
2019-02-08T18:38:22.176Z,42.779541
2019-02-08T18:38:31.540Z,42.974854
2019-02-08T18:38:40.856Z,43.078613
2019-02-08T18:38:50.239Z,43.078613
2019-02-08T18:39:00.883Z,43.078613
2019-02-08T18:39:10.090Z,43.078613
2019-02-08T18:39:19.404Z,42.974854
2019-02-08T18:39:28.769Z,42.877197
2019-02-08T18:39:37.915Z,42.877197
2019-02-08T18:39:47.212Z,42.877197
2019-02-08T18:39:56.536Z,42.974854
2019-02-08T18:40:05.551Z,43.078613
2019-02-08T18:40:14.562Z,43.280029
2019-02-08T18:40:23.917Z,43.280029
2019-02-08T18:40:33.065Z,43.078613
2019-02-08T18:40:42.242Z,42.974854
2019-02-08T18:40:51.149Z,42.974854
2019-02-08T18:41:01.362Z,43.078613
2019-02-08T18:41:09.972Z,43.060303
2019-02-08T18:41:19.344Z,43.060303
2019-02-08T18:41:28.638Z,43.060303
2019-02-08T18:41:37.473Z,43.060303
2019-02-08T18:41:46.920Z,43.060303
2019-02-08T18:41:57.211Z,43.157959
2019-02-08T18:42:06.057Z,43.157959
2019-02-08T18:42:15.430Z,43.255615
2019-02-08T18:42:24.609Z,43.255615
2019-02-08T18:42:33.948Z,43.359375
2019-02-08T18:42:43.264Z,43.359375
2019-02-08T18:42:52.408Z,43.457031
2019-02-08T18:43:01.423Z,42.156982
2019-02-08T18:43:10.747Z,40.447998
2019-02-08T18:43:20.089Z,40.148926
2019-02-08T18:43:30.410Z,40.545654
2019-02-08T18:43:39.773Z,40.148926
2019-02-08T18:43:48.937Z,40.148926
2019-02-08T18:43:59.898Z,40.545654
2019-02-08T18:44:08.457Z,40.447998
2019-02-08T18:44:17.577Z,40.246582
2019-02-08T18:44:27.582Z,40.148926
2019-02-08T18:44:37.687Z,40.045166
2019-02-08T18:44:47.900Z,39.84375
2019-02-08T18:44:57.544Z,41.027832
2019-02-08T18:45:07.397Z,41.75415
2019-02-08T18:45:17.144Z,42.132568
2019-02-08T18:45:27.328Z,42.352295
2019-02-08T18:45:37.347Z,41.552734
2019-02-08T18:45:47.518Z,41.253662
2019-02-08T18:45:57.554Z,41.052246
2019-02-08T18:46:07.298Z,40.85083
2019-02-08T18:46:17.201Z,40.545654
2019-02-08T18:46:27.083Z,40.350342
2019-02-08T18:46:37.239Z,40.350342
2019-02-08T18:46:47.288Z,40.447998
2019-02-08T18:46:57.423Z,40.447998
2019-02-08T18:47:07.241Z,40.447998
2019-02-08T18:47:16.894Z,40.545654
2019-02-08T18:47:27.034Z,40.649414
2019-02-08T18:47:36.883Z,40.649414
2019-02-08T18:47:46.177Z,40.649414
2019-02-08T18:47:55.418Z,40.545654
2019-02-08T18:48:04.460Z,40.649414
2019-02-08T18:48:13.805Z,40.74707
2019-02-08T18:48:22.961Z,40.74707
2019-02-08T18:48:32.145Z,40.85083
2019-02-08T18:48:41.561Z,40.85083
2019-02-08T18:48:50.766Z,40.948486
2019-02-08T18:48:59.955Z,40.85083
2019-02-08T18:49:08.154Z,40.85083
2019-02-08T18:49:16.474Z,40.948486
2019-02-08T18:49:24.696Z,41.052246
2019-02-08T18:49:32.832Z,40.948486
2019-02-08T18:49:41.978Z,40.85083
2019-02-08T18:49:50.120Z,40.948486
2019-02-08T18:49:58.262Z,40.948486
2019-02-08T18:50:07.363Z,40.948486
2019-02-08T18:50:15.540Z,40.948486
2019-02-08T18:50:23.693Z,41.052246
2019-02-08T18:50:31.964Z,41.149902
2019-02-08T18:50:40.934Z,41.149902
2019-02-08T18:50:49.087Z,41.149902
2019-02-08T18:50:57.223Z,41.253662
2019-02-08T18:51:07.409Z,41.253662
2019-02-08T18:51:15.551Z,41.253662
2019-02-08T18:51:23.689Z,41.351318
2019-02-08T18:51:31.852Z,41.351318
2019-02-08T18:51:39.986Z,41.448975
2019-02-08T18:51:48.140Z,41.351318
2019-02-08T18:51:56.358Z,41.253662
2019-02-08T18:52:04.535Z,41.253662
2019-02-08T18:52:12.752Z,41.351318
2019-02-08T18:52:21.891Z,41.351318
2019-02-08T18:52:30.048Z,41.351318
2019-02-08T18:52:38.187Z,41.351318
2019-02-08T18:52:47.306Z,41.430664
2019-02-08T18:52:55.447Z,41.430664
2019-02-08T18:53:03.598Z,41.430664
2019-02-08T18:53:13.736Z,41.430664
2019-02-08T18:53:21.898Z,41.534424
2019-02-08T18:53:30.048Z,41.63208
2019-02-08T18:53:38.190Z,41.63208
2019-02-08T18:53:47.324Z,41.534424
2019-02-08T18:53:55.454Z,41.534424
2019-02-08T18:54:03.768Z,41.63208
2019-02-08T18:54:14.353Z,41.73584
2019-02-08T18:54:23.156Z,41.833496
2019-02-08T18:54:32.076Z,41.833496
2019-02-08T18:54:41.437Z,41.931152
2019-02-08T18:54:51.583Z,41.931152
2019-02-08T18:55:01.650Z,41.931152
2019-02-08T18:55:10.626Z,42.034912
2019-02-08T18:55:19.632Z,42.034912
2019-02-08T18:55:28.796Z,42.034912
2019-02-08T18:55:37.816Z,42.132568
2019-02-08T18:55:47.143Z,42.132568
2019-02-08T18:55:56.517Z,42.132568
2019-02-08T18:56:05.602Z,42.132568
2019-02-08T18:56:14.896Z,42.236328
2019-02-08T18:56:24.291Z,42.236328
2019-02-08T18:56:32.942Z,42.236328
2019-02-08T18:56:42.274Z,42.132568
2019-02-08T18:56:51.597Z,42.132568
2019-02-08T18:57:00.776Z,42.132568
2019-02-08T18:57:10.794Z,42.132568
2019-02-08T18:57:20.050Z,42.236328
2019-02-08T18:57:31.381Z,42.236328
2019-02-08T18:57:40.697Z,42.236328
2019-02-08T18:57:49.981Z,42.132568
2019-02-08T18:57:59.321Z,42.132568
2019-02-08T18:58:09.010Z,42.132568
2019-02-08T18:58:21.671Z,42.132568
2019-02-08T18:58:30.733Z,42.236328
2019-02-08T18:58:40.100Z,42.236328
2019-02-08T18:58:49.406Z,42.211914
2019-02-08T18:58:59.715Z,42.236328
2019-02-08T18:59:09.069Z,42.211914
2019-02-08T18:59:18.174Z,42.211914
2019-02-08T18:59:28.288Z,42.211914
2019-02-08T18:59:37.624Z,42.211914
2019-02-08T18:59:46.774Z,42.315674
2019-02-08T18:59:56.953Z,42.315674
2019-02-08T19:00:05.925Z,42.315674
2019-02-08T19:00:14.913Z,42.211914
2019-02-08T19:00:25.146Z,42.211914
2019-02-08T19:00:39.863Z,42.211914